Time;durP1;ratioP1;P1;durP2;ratioP2;P2;SDS_P1;SDS_P2;PMS_P1;PMS_P2;Temp;Humidity;BMP_temperature;BMP_pressure;BME280_temperature;BME280_humidity;BME280_pressure;Samples;Min_cycle;Max_cycle;Signal;HPM_P1;HPM_P2
2021/07/16 00:00:17;;;;;;;0.45;0.45;;;;;;;13.99;93.99;96921.06;29395;207;63009;-59
2021/07/16 00:00:49;;;;;;;0.40;0.40;;;;;;;13.99;93.91;96921.06;29395;224;63005;-58
2021/07/16 00:01:22;;;;;;;0.50;0.50;;;;;;;13.99;93.91;96918.34;29395;307;63014;-55
2021/07/16 00:01:54;;;;;;;0.40;0.40;;;;;;;13.99;94.21;96923.00;29395;267;63017;-57
2021/07/16 00:02:26;;;;;;;0.50;0.50;;;;;;;13.96;93.90;96921.69;29395;203;63009;-59
2021/07/16 00:02:57;;;;;;;0.45;0.45;;;;;;;13.96;94.21;96924.41;29395;302;63004;-58
2021/07/16 00:03:30;;;;;;;0.50;0.50;;;;;;;13.96;94.14;96923.63;29395;198;63022;-59
2021/07/16 00:04:02;;;;;;;0.50;0.50;;;;;;;13.95;94.17;96922.00;29395;213;63004;-59
2021/07/16 00:04:33;;;;;;;0.40;0.40;;;;;;;13.93;94.23;96925.03;29394;333;64013;-59
2021/07/16 00:05:05;;;;;;;0.47;0.47;;;;;;;13.92;94.06;96926.16;29395;262;63004;-54
2021/07/16 00:05:36;;;;;;;0.50;0.50;;;;;;;13.89;94.06;96924.06;29395;310;63008;-59
2021/07/16 00:06:07;;;;;;;0.50;0.50;;;;;;;13.88;94.12;96917.00;29395;229;63004;-58
2021/07/16 00:06:39;;;;;;;0.40;0.40;;;;;;;13.89;94.04;96918.59;29395;197;63009;-56
2021/07/16 00:07:11;;;;;;;0.50;0.50;;;;;;;13.89;94.36;96918.59;29395;213;63005;-59
2021/07/16 00:07:42;;;;;;;0.40;0.40;;;;;;;13.89;94.08;96918.59;29395;222;63009;-56
2021/07/16 00:08:14;;;;;;;0.40;0.40;;;;;;;13.90;94.32;96913.94;29394;270;64009;-56
2021/07/16 00:08:45;;;;;;;0.40;0.40;;;;;;;13.90;94.00;96914.75;29395;207;63009;-58
2021/07/16 00:09:17;;;;;;;0.40;0.40;;;;;;;13.91;94.03;96919.09;29395;283;63005;-55
2021/07/16 00:09:48;;;;;;;0.40;0.40;;;;;;;13.87;94.28;96909.13;29395;235;63009;-59
2021/07/16 00:10:21;;;;;;;0.40;0.40;;;;;;;13.90;94.09;96916.69;29395;210;63005;-57
2021/07/16 00:10:52;;;;;;;0.50;0.50;;;;;;;13.89;93.79;96918.59;29395;232;63009;-55
2021/07/16 00:11:24;;;;;;;0.40;0.40;;;;;;;13.86;93.97;96915.72;29395;211;63004;-58
2021/07/16 00:11:55;;;;;;;0.40;0.40;;;;;;;13.82;93.74;96912.81;29394;225;64009;-58
2021/07/16 00:12:26;;;;;;;0.45;0.45;;;;;;;13.78;94.09;96914.56;29395;208;63015;-58
2021/07/16 00:12:58;;;;;;;0.50;0.50;;;;;;;13.76;94.22;96911.34;29394;196;64013;-55
2021/07/16 00:13:29;;;;;;;0.40;0.40;;;;;;;13.75;94.21;96917.91;29395;217;63004;-59
2021/07/16 00:14:01;;;;;;;0.40;0.40;;;;;;;13.75;94.13;96923.34;29395;203;63009;-56
2021/07/16 00:14:32;;;;;;;0.40;0.40;;;;;;;13.75;94.08;96917.91;29395;225;63005;-56
2021/07/16 00:15:06;;;;;;;0.47;0.47;;;;;;;13.73;94.44;96911.97;29394;244;64014;-59
2021/07/16 00:15:37;;;;;;;0.40;0.40;;;;;;;13.75;94.54;96920.63;29395;222;63005;-59
2021/07/16 00:16:08;;;;;;;0.50;0.50;;;;;;;13.74;94.63;96916.28;29394;202;64013;-55
2021/07/16 00:16:43;;;;;;;0.40;0.40;;;;;;;13.75;94.34;96907.00;29395;217;63005;-55
2021/07/16 00:17:15;;;;;;;0.40;0.40;;;;;;;13.75;94.39;96913.25;29394;266;64013;-59
2021/07/16 00:17:46;;;;;;;0.40;0.40;;;;;;;13.77;94.65;96912.94;29395;210;63005;-55
2021/07/16 00:18:17;;;;;;;0.50;0.50;;;;;;;13.77;94.34;96910.22;29394;205;64013;-55
2021/07/16 00:18:49;;;;;;;0.50;0.50;;;;;;;13.77;94.50;96921.13;29395;217;63004;-58
2021/07/16 00:19:21;;;;;;;0.50;0.50;;;;;;;13.78;94.38;96913.75;29395;209;63009;-55
2021/07/16 00:19:52;;;;;;;0.50;0.50;;;;;;;13.78;94.57;96916.47;29395;215;63004;-58
2021/07/16 00:20:23;;;;;;;0.47;0.47;;;;;;;13.72;94.36;96904.88;29395;197;63009;-58
2021/07/16 00:20:54;;;;;;;0.40;0.40;;;;;;;13.77;94.10;96907.50;29394;199;64008;-55
2021/07/16 00:21:26;;;;;;;0.50;0.50;;;;;;;13.77;94.32;96914.87;29395;223;63009;-55
2021/07/16 00:21:57;;;;;;;0.40;0.40;;;;;;;13.77;94.35;96909.41;29395;210;63005;-59
2021/07/16 00:22:28;;;;;;;0.50;0.50;;;;;;;13.77;94.07;96912.94;29395;208;63009;-55
2021/07/16 00:23:00;;;;;;;0.50;0.50;;;;;;;13.76;94.21;96919.50;29394;254;64009;-58
2021/07/16 00:23:31;;;;;;;0.75;0.75;;;;;;;13.78;94.08;96911.81;29395;210;63009;-60
2021/07/16 00:24:04;;;;;;;0.40;0.40;;;;;;;13.78;93.99;96917.28;29395;214;63005;-60
2021/07/16 00:24:38;;;;;;;0.40;0.40;;;;;;;13.79;93.96;96912.63;29395;208;63016;-58
2021/07/16 00:25:11;;;;;;;0.40;0.40;;;;;;;13.77;94.36;96915.66;29395;198;63008;-59
2021/07/16 00:25:42;;;;;;;0.40;0.40;;;;;;;13.76;94.18;96919.50;29395;209;63009;-56
2021/07/16 00:26:14;;;;;;;0.50;0.50;;;;;;;13.74;93.88;96921.75;29394;267;64009;-56
2021/07/16 00:26:46;;;;;;;0.40;0.40;;;;;;;13.70;94.15;96921.56;29395;197;63009;-58
2021/07/16 00:27:18;;;;;;;0.40;0.40;;;;;;;13.71;94.06;96922.37;29395;203;63004;-60
2021/07/16 00:27:52;;;;;;;0.40;0.40;;;;;;;13.72;94.00;96923.97;29395;264;63009;-58
2021/07/16 00:28:24;;;;;;;0.40;0.40;;;;;;;13.72;94.24;96922.06;29395;222;63004;-56
2021/07/16 00:28:56;;;;;;;0.50;0.50;;;;;;;13.72;93.94;96923.97;29395;208;63009;-58
2021/07/16 00:29:28;;;;;;;0.40;0.40;;;;;;;13.70;93.97;96920.75;29395;220;63005;-59
2021/07/16 00:30:00;;;;;;;0.40;0.40;;;;;;;13.69;94.03;96924.59;29395;254;63009;-59
2021/07/16 00:30:31;;;;;;;0.40;0.40;;;;;;;13.70;94.14;96923.47;29395;271;63005;-56
2021/07/16 00:31:02;;;;;;;1.37;1.37;;;;;;;13.69;93.94;96927.31;29395;319;63009;-59
2021/07/16 00:31:35;;;;;;;0.40;0.40;;;;;;;13.70;94.31;96926.22;29394;226;64021;-58
2021/07/16 00:32:07;;;;;;;0.40;0.40;;;;;;;13.70;93.89;96921.56;29395;224;63009;-58
2021/07/16 00:32:39;;;;;;;0.40;0.40;;;;;;;13.72;94.20;96926.72;29395;318;63005;-58
2021/07/16 00:33:11;;;;;;;0.40;0.40;;;;;;;13.73;93.99;96925.59;29395;220;63009;-59
2021/07/16 00:33:42;;;;;;;0.40;0.40;;;;;;;13.73;93.89;96926.41;29394;199;64009;-56
2021/07/16 00:34:14;;;;;;;0.47;0.47;;;;;;;13.74;93.78;96929.94;29395;203;63009;-57
2021/07/16 00:34:45;;;;;;;0.43;0.43;;;;;;;13.75;93.77;96934.25;29395;244;63004;-55
2021/07/16 00:35:16;;;;;;;0.50;0.50;;;;;;;13.72;93.96;96930.25;29395;213;63009;-54
2021/07/16 00:35:47;;;;;;;0.50;0.50;;;;;;;13.70;93.94;96931.66;29395;202;63004;-56
2021/07/16 00:36:19;;;;;;;0.50;0.50;;;;;;;13.70;93.75;96942.56;29395;218;63008;-58
2021/07/16 00:36:50;;;;;;;0.50;0.50;;;;;;;13.68;94.08;96944.81;29395;200;63005;-55
2021/07/16 00:37:22;;;;;;;0.50;0.50;;;;;;;13.68;93.78;96936.63;29395;294;63009;-56
2021/07/16 00:37:53;;;;;;;0.50;0.50;;;;;;;13.67;94.04;96937.75;29395;272;63005;-55
2021/07/16 00:38:25;;;;;;;0.45;0.45;;;;;;;13.66;94.05;96936.13;29394;316;64013;-58
2021/07/16 00:38:56;;;;;;;0.50;0.50;;;;;;;13.67;93.99;96937.75;29395;233;63005;-56
2021/07/16 00:39:27;;;;;;;0.40;0.40;;;;;;;13.68;94.08;96942.06;29395;253;63009;-56
2021/07/16 00:39:59;;;;;;;0.50;0.50;;;;;;;13.68;94.12;96942.06;29395;223;63004;-56
2021/07/16 00:40:31;;;;;;;0.50;0.50;;;;;;;13.68;93.80;96934.69;29395;215;63009;-56
2021/07/16 00:41:03;;;;;;;0.40;0.40;;;;;;;13.69;94.00;96941.75;29394;258;64009;-58
2021/07/16 00:41:34;;;;;;;0.50;0.50;;;;;;;13.70;93.67;96939.84;29395;213;63009;-58
2021/07/16 00:42:06;;;;;;;0.50;0.50;;;;;;;13.69;93.81;96935.50;29394;248;64009;-57
2021/07/16 00:42:38;;;;;;;0.50;0.50;;;;;;;13.69;93.61;96941.75;29395;202;63025;-56
2021/07/16 00:43:10;;;;;;;0.40;0.40;;;;;;;13.69;93.47;96938.22;29394;221;64009;-56
2021/07/16 00:43:41;;;;;;;0.40;0.40;;;;;;;13.68;93.74;96942.88;29394;222;64014;-59
2021/07/16 00:44:13;;;;;;;0.40;0.40;;;;;;;13.69;93.66;96935.50;29395;215;63005;-59
2021/07/16 00:44:44;;;;;;;0.40;0.40;;;;;;;13.67;93.82;96935.81;29395;222;63009;-56
2021/07/16 00:45:15;;;;;;;0.40;0.40;;;;;;;13.68;93.81;96939.34;29395;226;63005;-57
2021/07/16 00:45:47;;;;;;;0.40;0.40;;;;;;;13.67;93.57;96943.19;29395;223;63009;-57
2021/07/16 00:46:18;;;;;;;0.40;0.40;;;;;;;13.64;93.80;96939.16;29395;204;63005;-59
2021/07/16 00:46:49;;;;;;;0.40;0.40;;;;;;;13.64;93.52;96946.53;29395;295;63009;-59
2021/07/16 00:47:20;;;;;;;0.40;0.40;;;;;;;13.64;93.58;96943.81;29395;197;63003;-59
2021/07/16 00:47:52;;;;;;;0.40;0.40;;;;;;;13.64;93.60;96943.81;29395;219;63009;-57
2021/07/16 00:48:23;;;;;;;0.40;0.40;;;;;;;13.63;93.56;96937.56;29394;227;64023;-58
2021/07/16 00:48:54;;;;;;;0.40;0.40;;;;;;;13.63;93.56;96942.19;29395;259;63009;-56
2021/07/16 00:49:28;;;;;;;0.50;0.50;;;;;;;13.62;93.55;96940.59;29395;223;63004;-56
2021/07/16 00:49:59;;;;;;;0.40;0.40;;;;;;;13.62;93.76;96940.59;29395;254;63008;-58
2021/07/16 00:50:34;;;;;;;0.50;0.50;;;;;;;13.62;93.90;96938.66;29395;197;63004;-57
2021/07/16 00:51:06;;;;;;;0.50;0.50;;;;;;;13.64;93.90;96943.81;29395;202;63009;-59
2021/07/16 00:51:38;;;;;;;0.40;0.40;;;;;;;13.66;93.81;96952.50;29395;233;63005;-59
2021/07/16 00:52:10;;;;;;;0.40;0.40;;;;;;;13.67;93.54;96954.09;29395;321;63028;-55
2021/07/16 00:52:44;;;;;;;0.40;0.40;;;;;;;13.67;93.64;96954.91;29395;294;63005;-60
2021/07/16 00:53:18;;;;;;;0.40;0.40;;;;;;;13.68;93.53;96950.25;29394;253;64013;-57
2021/07/16 00:53:53;;;;;;;0.40;0.40;;;;;;;13.66;93.64;96950.56;29395;213;63005;-56
2021/07/16 00:54:24;;;;;;;0.40;0.40;;;;;;;13.67;93.52;96954.09;29395;230;63009;-56
2021/07/16 00:54:56;;;;;;;0.40;0.40;;;;;;;13.66;93.84;96949.75;29395;331;63004;-56
2021/07/16 00:55:30;;;;;;;0.40;0.40;;;;;;;13.65;93.49;96950.88;29395;227;63009;-56
2021/07/16 00:56:02;;;;;;;0.50;0.50;;;;;;;13.64;93.89;96941.88;29395;207;63004;-56
2021/07/16 00:56:33;;;;;;;0.50;0.50;;;;;;;13.65;93.59;96950.88;29395;254;63009;-56
2021/07/16 00:57:07;;;;;;;0.50;0.50;;;;;;;13.64;93.68;96946.53;29394;361;64009;-55
2021/07/16 00:57:39;;;;;;;0.40;0.40;;;;;;;13.65;93.72;96948.16;29394;225;64013;-58
2021/07/16 00:58:11;;;;;;;0.40;0.40;;;;;;;13.65;93.55;96942.69;29395;228;63004;-59
2021/07/16 00:58:42;;;;;;;0.50;0.50;;;;;;;13.64;93.74;96939.16;29395;283;63009;-57
2021/07/16 00:59:16;;;;;;;0.40;0.40;;;;;;;13.66;93.68;96952.50;29395;212;63005;-56
2021/07/16 00:59:48;;;;;;;0.40;0.40;;;;;;;13.66;93.54;96947.84;29395;214;63009;-55
2021/07/16 01:00:19;;;;;;;0.50;0.50;;;;;;;13.66;93.83;96949.75;29395;210;63005;-58
2021/07/16 01:00:50;;;;;;;0.47;0.47;;;;;;;13.64;93.80;96955.53;29395;214;63009;-55
2021/07/16 01:01:22;;;;;;;0.50;0.50;;;;;;;13.64;93.91;96944.63;29395;198;63005;-59
2021/07/16 01:01:56;;;;;;;0.40;0.40;;;;;;;13.64;93.53;96954.72;29395;205;63009;-56
2021/07/16 01:02:29;;;;;;;0.50;0.50;;;;;;;13.61;93.80;96956.12;29395;269;63004;-58
2021/07/16 01:03:04;;;;;;;0.50;0.50;;;;;;;13.61;93.76;96955.34;29394;202;64013;-59
2021/07/16 01:03:35;;;;;;;0.50;0.50;;;;;;;13.60;93.68;96954.53;29395;216;63004;-58
2021/07/16 01:04:10;;;;;;;0.40;0.40;;;;;;;13.60;93.95;96951.00;29395;220;63009;-56
2021/07/16 01:04:41;;;;;;;0.50;0.50;;;;;;;13.59;93.96;96957.56;29395;302;63004;-56
2021/07/16 01:05:16;;;;;;;0.50;0.50;;;;;;;13.57;93.94;96951.63;29395;225;63008;-57
2021/07/16 01:05:48;;;;;;;0.40;0.40;;;;;;;13.57;94.05;96954.34;29395;234;63003;-58
2021/07/16 01:06:22;;;;;;;0.40;0.40;;;;;;;13.57;93.99;96955.16;29395;211;63009;-58
2021/07/16 01:06:54;;;;;;;0.40;0.40;;;;;;;13.57;93.65;96954.34;29394;256;64009;-56
2021/07/16 01:07:26;;;;;;;0.50;0.50;;;;;;;13.57;93.78;96954.34;29395;273;63009;-55
2021/07/16 01:07:58;;;;;;;0.40;0.40;;;;;;;13.58;93.69;96955.94;29395;221;63000;-56
2021/07/16 01:08:29;;;;;;;0.40;0.40;;;;;;;13.57;93.97;96949.69;29394;243;64013;-56
2021/07/16 01:09:00;;;;;;;0.40;0.40;;;;;;;13.57;94.16;96951.63;29395;197;63005;-56
2021/07/16 01:09:31;;;;;;;0.40;0.40;;;;;;;13.57;94.15;96949.69;29394;231;64013;-57
2021/07/16 01:10:04;;;;;;;0.60;0.60;;;;;;;13.56;94.13;96947.28;29395;216;63004;-55
2021/07/16 01:10:36;;;;;;;0.50;0.50;;;;;;;13.58;94.03;96945.06;29395;218;63009;-55
2021/07/16 01:11:07;;;;;;;0.40;0.40;;;;;;;13.57;94.00;96948.88;29395;203;63004;-55
2021/07/16 01:11:39;;;;;;;0.40;0.40;;;;;;;13.57;93.79;96946.97;29395;202;63009;-58
2021/07/16 01:12:11;;;;;;;1.50;1.50;;;;;;;13.57;93.96;96943.44;29395;262;63011;-57
2021/07/16 01:12:44;;;;;;;0.40;0.40;;;;;;;13.56;93.76;96944.56;29395;312;63019;-59
2021/07/16 01:13:15;;;;;;;0.40;0.40;;;;;;;13.54;93.70;96950.31;29395;222;63004;-58
2021/07/16 01:13:48;;;;;;;0.43;0.43;;;;;;;13.55;93.74;96945.66;29394;203;64033;-56
2021/07/16 01:14:21;;;;;;;0.43;0.43;;;;;;;13.55;93.94;96951.91;29395;213;63005;-57
2021/07/16 01:14:53;;;;;;;0.40;0.40;;;;;;;13.57;93.96;96957.06;29395;272;63009;-58
2021/07/16 01:15:27;;;;;;;0.47;0.47;;;;;;;13.58;93.91;96950.50;29395;222;63005;-56
2021/07/16 01:15:58;;;;;;;0.40;0.40;;;;;;;13.59;93.67;96957.56;29395;199;63009;-55
2021/07/16 01:16:30;;;;;;;0.40;0.40;;;;;;;13.58;93.57;96950.50;29394;198;64009;-59
2021/07/16 01:17:02;;;;;;;0.40;0.40;;;;;;;13.57;93.86;96955.16;29395;222;63009;-58
2021/07/16 01:17:33;;;;;;;0.50;0.50;;;;;;;13.57;93.92;96963.31;29395;196;63004;-59
2021/07/16 01:18:05;;;;;;;0.40;0.40;;;;;;;13.56;93.73;96953.53;29395;204;63009;-59
2021/07/16 01:18:36;;;;;;;0.40;0.40;;;;;;;13.55;93.98;96953.84;29395;222;63004;-56
2021/07/16 01:19:10;;;;;;;0.43;0.43;;;;;;;13.55;93.85;96956.56;29395;218;63009;-58
2021/07/16 01:19:51;;;;;;;0.50;0.50;;;;;;;13.53;94.22;96953.34;29395;249;63004;-56
2021/07/16 01:20:29;;;;;;;0.50;0.50;;;;;;;13.51;94.16;96958.34;29395;233;63029;-59
2021/07/16 01:21:01;;;;;;;0.50;0.50;;;;;;;13.52;94.21;96957.19;29394;258;64009;-56
2021/07/16 01:21:35;;;;;;;0.50;0.50;;;;;;;13.54;93.89;96954.97;29395;224;63009;-58
2021/07/16 01:22:09;;;;;;;0.50;0.50;;;;;;;13.53;94.15;96950.63;29395;292;63005;-56
2021/07/16 01:22:43;;;;;;;0.43;0.43;;;;;;;13.52;93.94;96957.19;29395;233;63009;-57
2021/07/16 01:23:22;;;;;;;0.40;0.40;;;;;;;13.54;94.30;96954.97;29395;225;63005;-56
2021/07/16 01:23:53;;;;;;;0.40;0.40;;;;;;;13.55;94.29;96956.56;29394;238;64013;-59
2021/07/16 01:24:25;;;;;;;0.40;0.40;;;;;;;13.55;94.33;96957.38;29395;207;63005;-59
2021/07/16 01:24:57;;;;;;;0.45;0.45;;;;;;;13.57;94.31;96962.53;29395;260;63009;-58
2021/07/16 01:25:32;;;;;;;0.50;0.50;;;;;;;13.56;94.54;96960.91;29395;248;63017;-59
2021/07/16 01:26:06;;;;;;;0.45;0.45;;;;;;;13.56;94.24;96960.91;29395;297;63009;-57
2021/07/16 01:26:37;;;;;;;0.80;0.80;;;;;;;13.57;94.28;96959.78;29394;216;64009;-56
2021/07/16 01:27:10;;;;;;;0.50;0.50;;;;;;;13.57;94.48;96954.34;29395;236;63009;-56
2021/07/16 01:27:48;;;;;;;0.40;0.40;;;;;;;13.57;94.43;96959.78;29395;215;63004;-58
2021/07/16 01:28:20;;;;;;;0.40;0.40;;;;;;;13.58;94.36;96962.22;29395;261;63008;-56
2021/07/16 01:28:53;;;;;;;0.40;0.40;;;;;;;13.57;94.26;96954.34;29395;202;63005;-58
2021/07/16 01:29:24;;;;;;;0.50;0.50;;;;;;;13.58;94.32;96950.50;29395;264;63009;-59
2021/07/16 01:29:56;;;;;;;0.40;0.40;;;;;;;13.58;94.37;96954.03;29395;220;63005;-56
2021/07/16 01:30:31;;;;;;;0.50;0.50;;;;;;;13.59;94.36;96952.91;29395;243;63009;-56
2021/07/16 01:31:04;;;;;;;0.50;0.50;;;;;;;13.59;94.48;96960.28;29394;283;64025;-56
2021/07/16 01:31:36;;;;;;;0.45;0.45;;;;;;;13.56;94.14;96950.81;29395;216;63009;-56
2021/07/16 01:32:10;;;;;;;0.45;0.45;;;;;;;13.59;94.28;96960.28;29395;219;63005;-57
2021/07/16 01:32:42;;;;;;;0.40;0.40;;;;;;;13.58;94.03;96947.78;29395;218;63009;-56
2021/07/16 01:33:14;;;;;;;0.40;0.40;;;;;;;13.57;94.26;96959.78;29395;238;63016;-59
2021/07/16 01:33:46;;;;;;;0.40;0.40;;;;;;;13.57;94.07;96959.78;29395;198;63009;-59
2021/07/16 01:34:19;;;;;;;0.50;0.50;;;;;;;13.57;94.09;96952.41;29395;255;63004;-56
2021/07/16 01:34:50;;;;;;;0.40;0.40;;;;;;;13.58;94.17;96955.94;29395;254;63009;-59
2021/07/16 01:35:23;;;;;;;0.50;0.50;;;;;;;13.58;93.99;96950.50;29394;202;64008;-58
2021/07/16 01:35:55;;;;;;;0.40;0.40;;;;;;;13.58;93.94;96961.41;29395;210;63024;-57
2021/07/16 01:36:27;;;;;;;0.50;0.50;;;;;;;13.55;94.12;96956.56;29395;220;63005;-59
2021/07/16 01:36:58;;;;;;;0.40;0.40;;;;;;;13.55;94.47;96959.28;29395;221;63009;-59
2021/07/16 01:37:30;;;;;;;0.43;0.43;;;;;;;13.55;94.70;96951.13;29395;223;63005;-56
2021/07/16 01:38:03;;;;;;;0.40;0.40;;;;;;;13.55;94.64;96951.13;29395;264;63009;-56
2021/07/16 01:38:34;;;;;;;0.50;0.50;;;;;;;13.55;94.45;96960.09;29395;205;63005;-56
2021/07/16 01:39:05;;;;;;;0.50;0.50;;;;;;;13.56;94.89;96955.44;29395;199;63017;-56
2021/07/16 01:39:37;;;;;;;0.45;0.45;;;;;;;13.57;94.63;96954.34;29394;198;64009;-56
2021/07/16 01:40:12;;;;;;;0.50;0.50;;;;;;;13.58;94.59;96958.69;29395;262;63009;-60
2021/07/16 01:40:43;;;;;;;0.50;0.50;;;;;;;13.59;94.66;96952.13;29395;204;63004;-59
2021/07/16 01:41:15;;;;;;;0.45;0.45;;;;;;;13.60;94.51;96959.19;29395;258;63009;-56
2021/07/16 01:41:46;;;;;;;0.50;0.50;;;;;;;13.59;94.63;96952.91;29395;226;63004;-57
2021/07/16 01:42:18;;;;;;;0.50;0.50;;;;;;;13.60;94.47;96959.19;29395;232;63008;-56
2021/07/16 01:42:52;;;;;;;0.50;0.50;;;;;;;13.62;94.64;96962.41;29395;218;63012;-56
2021/07/16 01:43:23;;;;;;;0.50;0.50;;;;;;;13.62;94.45;96960.47;29395;204;63008;-56
2021/07/16 01:43:54;;;;;;;0.50;0.50;;;;;;;13.63;94.45;96955.81;29395;207;63005;-56
2021/07/16 01:44:25;;;;;;;0.40;0.40;;;;;;;13.64;94.76;96957.44;29394;220;64013;-55
2021/07/16 01:44:57;;;;;;;0.40;0.40;;;;;;;13.62;94.67;96955.03;29395;228;63005;-56
2021/07/16 01:45:38;;;;;;;0.50;0.50;;;;;;;13.63;94.42;96959.37;29395;227;63009;-56
2021/07/16 01:46:11;;;;;;;0.50;0.50;;;;;;;13.64;94.77;96960.16;29417;221;63005;-56
2021/07/16 01:46:43;;;;;;;0.40;0.40;;;;;;;13.64;94.71;96954.72;29395;222;63009;-58
2021/07/16 01:47:14;;;;;;;0.50;0.50;;;;;;;13.64;94.77;96955.53;29395;249;63004;-55
2021/07/16 01:47:49;;;;;;;0.40;0.40;;;;;;;13.65;94.47;96957.12;29395;253;63009;-59
2021/07/16 01:48:21;;;;;;;0.50;0.50;;;;;;;13.65;94.83;96957.12;29395;205;63010;-56
2021/07/16 01:48:52;;;;;;;0.40;0.40;;;;;;;13.67;94.45;96956.81;29395;196;63009;-59
2021/07/16 01:49:23;;;;;;;0.40;0.40;;;;;;;13.69;94.73;96957.31;29394;235;64009;-58
2021/07/16 01:49:55;;;;;;;0.40;0.40;;;;;;;13.68;94.41;96956.50;29395;222;63019;-58
2021/07/16 01:50:28;;;;;;;0.50;0.50;;;;;;;13.70;94.75;96948.84;29395;224;63005;-57
2021/07/16 01:50:59;;;;;;;0.50;0.50;;;;;;;13.72;94.32;96948.53;29395;227;63020;-58
2021/07/16 01:51:30;;;;;;;0.50;0.50;;;;;;;13.73;94.58;96958.31;29395;222;63005;-56
2021/07/16 01:52:04;;;;;;;0.40;0.40;;;;;;;13.72;94.24;96957.50;29395;235;63009;-56
2021/07/16 01:52:37;;;;;;;0.40;0.40;;;;;;;13.71;94.48;96957.81;29395;264;63005;-60
2021/07/16 01:53:10;;;;;;;0.40;0.40;;;;;;;13.70;94.44;96948.84;29395;272;63009;-59
2021/07/16 01:53:42;;;;;;;0.40;0.40;;;;;;;13.69;94.74;96951.87;29395;231;63005;-57
2021/07/16 01:54:14;;;;;;;0.40;0.40;;;;;;;13.68;94.78;96951.06;29395;199;63009;-59
2021/07/16 01:54:45;;;;;;;0.40;0.40;;;;;;;13.70;94.53;96953.47;29394;241;64009;-55
2021/07/16 01:55:19;;;;;;;0.50;0.50;;;;;;;13.71;94.46;96955.09;29395;243;63009;-56
2021/07/16 01:55:51;;;;;;;0.40;0.40;;;;;;;13.72;94.63;96956.69;29395;249;63014;-55
2021/07/16 01:56:23;;;;;;;0.40;0.40;;;;;;;13.73;94.91;96952.84;29395;203;63009;-60
2021/07/16 01:56:59;;;;;;;0.40;0.40;;;;;;;13.73;94.89;96959.13;29395;225;63004;-56
2021/07/16 01:57:31;;;;;;;0.40;0.40;;;;;;;13.73;94.68;96961.03;29395;202;63008;-58
2021/07/16 01:58:09;;;;;;;0.40;0.40;;;;;;;13.72;95.21;96953.97;29395;222;63005;-56
2021/07/16 01:58:40;;;;;;;0.40;0.40;;;;;;;13.71;95.02;96953.16;29394;219;64014;-57
2021/07/16 01:59:16;;;;;;;0.40;0.40;;;;;;;13.72;95.27;96956.69;29395;202;63005;-58
2021/07/16 01:59:49;;;;;;;0.50;0.50;;;;;;;13.72;95.01;96952.06;29395;226;63009;-58
2021/07/16 02:00:24;;;;;;;0.40;0.40;;;;;;;13.74;94.83;96954.47;29395;252;63005;-56
2021/07/16 02:00:55;;;;;;;0.40;0.40;;;;;;;13.75;95.07;96956.06;29395;214;63009;-56
2021/07/16 02:01:28;;;;;;;0.50;0.50;;;;;;;13.76;94.87;96952.25;29395;224;63005;-59
2021/07/16 02:01:59;;;;;;;0.40;0.40;;;;;;;13.77;94.64;96958.50;29395;273;63009;-58
2021/07/16 02:02:31;;;;;;;0.50;0.50;;;;;;;13.77;94.88;96953.03;29395;271;63004;-56
2021/07/16 02:03:09;;;;;;;0.40;0.40;;;;;;;13.76;94.71;96952.25;29395;271;63009;-56
2021/07/16 02:03:43;;;;;;;0.40;0.40;;;;;;;13.77;94.53;96953.84;29394;204;64009;-55
2021/07/16 02:04:15;;;;;;;0.40;0.40;;;;;;;13.79;94.54;96953.53;29395;219;63009;-56
2021/07/16 02:04:47;;;;;;;0.40;0.40;;;;;;;13.79;94.87;96954.34;29395;210;63004;-58
2021/07/16 02:05:21;;;;;;;0.50;0.50;;;;;;;13.80;94.85;96952.41;29395;295;63008;-56
2021/07/16 02:05:52;;;;;;;0.40;0.40;;;;;;;13.80;94.79;96946.97;29395;219;63005;-56
2021/07/16 02:06:24;;;;;;;0.40;0.40;;;;;;;13.80;94.53;96953.22;29395;311;63009;-58
2021/07/16 02:06:57;;;;;;;0.40;0.40;;;;;;;13.81;94.94;96956.75;29395;262;63005;-55
2021/07/16 02:07:29;;;;;;;0.40;0.40;;;;;;;13.80;94.53;96957.88;29395;240;63009;-57
2021/07/16 02:08:14;;;;;;;0.40;0.40;;;;;;;13.79;94.89;96957.06;29395;213;63005;-56
2021/07/16 02:08:45;;;;;;;0.50;0.50;;;;;;;13.79;94.66;96956.25;29394;243;64013;-56
2021/07/16 02:09:17;;;;;;;0.40;0.40;;;;;;;13.79;94.87;96957.06;29395;204;63000;-56
2021/07/16 02:09:48;;;;;;;0.40;0.40;;;;;;;13.80;94.67;96957.88;29395;226;63009;-55
2021/07/16 02:10:21;;;;;;;0.40;0.40;;;;;;;13.81;94.97;96954.84;29395;202;63004;-56
2021/07/16 02:10:56;;;;;;;0.40;0.40;;;;;;;13.81;94.47;96963.03;29395;240;63009;-57
2021/07/16 02:11:28;;;;;;;0.50;0.50;;;;;;;13.80;94.61;96958.69;29394;228;64009;-58
2021/07/16 02:12:00;;;;;;;0.40;0.40;;;;;;;13.81;94.71;96954.84;29394;226;64013;-56
2021/07/16 02:12:31;;;;;;;0.40;0.40;;;;;;;13.81;94.79;96957.56;29395;241;63004;-57
2021/07/16 02:13:03;;;;;;;0.40;0.40;;;;;;;13.82;94.85;96956.44;29395;248;63009;-59
2021/07/16 02:13:35;;;;;;;0.40;0.40;;;;;;;13.80;95.01;96953.22;29395;286;63005;-59
2021/07/16 02:14:06;;;;;;;0.62;0.62;;;;;;;13.82;94.66;96959.19;29395;304;63009;-56
2021/07/16 02:14:37;;;;;;;0.40;0.40;;;;;;;13.83;95.01;96957.25;29395;216;63012;-56
2021/07/16 02:15:17;;;;;;;0.40;0.40;;;;;;;13.84;95.00;96959.66;29395;247;63009;-58
2021/07/16 02:15:51;;;;;;;0.40;0.40;;;;;;;13.85;94.82;96955.03;29417;196;63015;-59
2021/07/16 02:16:23;;;;;;;0.50;0.50;;;;;;;13.85;94.74;96953.09;29394;355;64013;-56
2021/07/16 02:16:55;;;;;;;0.40;0.40;;;;;;;13.87;94.93;96956.28;29395;289;63005;-56
2021/07/16 02:17:26;;;;;;;0.40;0.40;;;;;;;13.87;94.99;96953.56;29395;258;63009;-56
2021/07/16 02:17:59;;;;;;;0.40;0.40;;;;;;;13.86;94.87;96953.91;29395;202;63004;-58
2021/07/16 02:18:30;;;;;;;0.40;0.40;;;;;;;13.85;94.93;96953.09;29394;198;64002;-58
2021/07/16 02:19:02;;;;;;;0.50;0.50;;;;;;;13.85;94.91;96955.81;29395;221;63014;-59
2021/07/16 02:19:35;;;;;;;0.40;0.40;;;;;;;13.85;95.01;96955.03;29395;307;63009;-56
2021/07/16 02:20:22;;;;;;;0.50;0.50;;;;;;;13.85;95.08;96955.81;29395;218;63004;-56
2021/07/16 02:20:57;;;;;;;0.40;0.40;;;;;;;13.85;95.13;96955.81;29395;266;63009;-56
2021/07/16 02:21:28;;;;;;;0.40;0.40;;;;;;;13.84;95.38;96954.22;29395;207;63005;-56
2021/07/16 02:21:59;;;;;;;0.40;0.40;;;;;;;13.84;95.11;96959.66;29395;281;63009;-56
2021/07/16 02:22:30;;;;;;;0.40;0.40;;;;;;;13.85;95.24;96957.75;29395;283;63016;-58
2021/07/16 02:23:06;;;;;;;0.40;0.40;;;;;;;13.85;95.16;96961.28;29395;220;63009;-57
2021/07/16 02:23:38;;;;;;;0.40;0.40;;;;;;;13.86;95.01;96954.69;29394;199;64009;-56
2021/07/16 02:24:09;;;;;;;0.40;0.40;;;;;;;13.87;94.89;96953.56;29395;242;63018;-57
2021/07/16 02:24:41;;;;;;;0.40;0.40;;;;;;;13.87;95.15;96950.84;29395;225;63004;-56
2021/07/16 02:25:14;;;;;;;0.45;0.45;;;;;;;13.87;95.03;96953.56;29395;274;63009;-59
2021/07/16 02:25:47;;;;;;;0.50;0.50;;;;;;;13.89;94.84;96961.44;29395;292;63004;-58
2021/07/16 02:26:18;;;;;;;0.40;0.40;;;;;;;13.89;94.99;96956.78;29394;230;64013;-56
2021/07/16 02:26:52;;;;;;;0.40;0.40;;;;;;;13.89;95.05;96956.78;29395;375;63004;-56
2021/07/16 02:27:23;;;;;;;0.47;0.47;;;;;;;13.89;94.79;96956.78;29395;217;63008;-55
2021/07/16 02:27:58;;;;;;;0.50;0.50;;;;;;;13.90;95.22;96955.66;29395;320;63004;-56
2021/07/16 02:28:31;;;;;;;0.40;0.40;;;;;;;13.91;94.81;96957.28;29395;246;63009;-55
2021/07/16 02:29:02;;;;;;;0.40;0.40;;;;;;;13.91;95.13;96954.56;29395;197;63005;-56
2021/07/16 02:29:35;;;;;;;0.50;0.50;;;;;;;13.91;95.06;96956.47;29394;218;64014;-56
2021/07/16 02:30:08;;;;;;;0.45;0.45;;;;;;;13.92;95.11;96952.63;29395;196;63000;-59
2021/07/16 02:30:39;;;;;;;0.50;0.50;;;;;;;13.91;95.07;96954.56;29395;210;63009;-56
2021/07/16 02:31:13;;;;;;;0.40;0.40;;;;;;;13.92;95.14;96961.63;29395;231;63015;-55
2021/07/16 02:31:44;;;;;;;0.40;0.40;;;;;;;13.92;94.75;96960.81;29395;310;63009;-58
2021/07/16 02:32:15;;;;;;;0.40;0.40;;;;;;;13.92;94.72;96953.44;29395;225;63009;-57
2021/07/16 02:32:46;;;;;;;0.40;0.40;;;;;;;13.92;94.76;96956.16;29395;306;63009;-59
2021/07/16 02:33:19;;;;;;;0.40;0.40;;;;;;;13.91;94.96;96954.56;29395;221;63009;-56
2021/07/16 02:33:50;;;;;;;0.40;0.40;;;;;;;13.92;94.99;96961.63;29395;233;63009;-55
2021/07/16 02:34:21;;;;;;;0.40;0.40;;;;;;;13.92;94.98;96958.91;29394;221;64004;-56